Heinz Schepers — V2OM7 — position and weather

sailwx.info

Track history (hours):
 
Tides and Currents Weather Stations Pressure Air Temp Water Temp Dewpoint Dewpoint Depression Visibility Wind Speed Wind Dir Waves Ship Positions

Heinz Schepers

Last reported at 2015-Jul-30 02:33 UTC. Time now 2015-Jul-30 18:11 UTC.
Position N 36°49' E 010°22'.

Length 101 m; draft 5.9 m.

Type: Cargo ship. MMSI: 304596000.

Date/timePositionNaut miles runAvg speedWind from/ knotsBaromVisibWave heightAir tempDewpointWater temp
2015-Jul-30 02:33N 36°49' E 010°22'0 0.0
2015-Jul-30 01:33N 36°49' E 010°22'0 0.0
2015-Jul-29 23:24N 36°49' E 010°22'0 0.1
2015-Jul-29 22:27N 36°49' E 010°22'0 0.0
2015-Jul-29 21:27N 36°49' E 010°22'0 0.0
2015-Jul-29 16:27N 36°49' E 010°22'0 0.0
2015-Jul-28 16:32N 36°49' E 010°22'0 0.0
2015-Jul-27 18:14N 36°49' E 010°22'0 0.0
2015-Jul-27 17:29N 36°49' E 010°22'0 0.0
2015-Jul-27 13:31N 36°49' E 010°22'0 0.0
2015-Jul-26 17:19N 36°49' E 010°22'0 0.0
2015-Jul-26 16:31N 36°49' E 010°22'0 0.0
2015-Jul-26 03:22N 36°49' E 010°22'0 0.0
2015-Jul-26 01:34N 36°49' E 010°22'  
2015-Jul-23 05:17N 36°49' E 010°22'33 1.6
2015-Jul-22 08:33N 37°22' E 010°24'1413.8
2015-Jul-22 07:33N 37°35' E 010°20'1414.4
2015-Jul-22 06:34N 37°47' E 010°10'1413.8
2015-Jul-22 05:33N 37°59' E 010°01'1413.7
2015-Jul-22 04:33N 38°11' E 009°52'1413.7
2015-Jul-22 03:34N 38°22' E 009°43'1413.6
2015-Jul-22 02:34N 38°34' E 009°33'1413.7
2015-Jul-22 01:33N 38°45' E 009°24'1414.2
2015-Jul-22 00:33N 38°57' E 009°13'1313.2
2015-Jul-21 23:33N 39°09' E 009°06'4 4.0
2015-Jul-21 22:31N 39°13' E 009°04'0 0.0
2015-Jul-21 21:31N 39°13' E 009°04'0 0.0
2015-Jul-21 20:31N 39°13' E 009°04'0 0.0
2015-Jul-21 19:31N 39°13' E 009°04'0 0.0
2015-Jul-21 18:31N 39°13' E 009°04'0 0.0
2015-Jul-21 17:31N 39°13' E 009°04'0 0.0
2015-Jul-21 16:31N 39°13' E 009°04'0 0.0
2015-Jul-21 15:31N 39°13' E 009°04'0 0.0
2015-Jul-21 14:31N 39°13' E 009°04'0 0.0
2015-Jul-21 13:31N 39°13' E 009°04'0 0.0
2015-Jul-21 12:31N 39°13' E 009°04'0 0.0
2015-Jul-21 11:34N 39°13' E 009°04'0 0.0
2015-Jul-21 10:33N 39°13' E 009°04'0 0.0
2015-Jul-21 09:33N 39°13' E 009°04'0 0.0
2015-Jul-21 08:33N 39°13' E 009°04'0 0.0
2015-Jul-21 07:33N 39°13' E 009°04'0 0.0
2015-Jul-21 06:33N 39°13' E 009°04'0 0.0
2015-Jul-21 05:33N 39°13' E 009°04'0 0.1
2015-Jul-21 04:33N 39°13' E 009°04'7 6.6
2015-Jul-21 03:33N 39°07' E 009°09'1111.4
2015-Jul-21 02:33N 39°02' E 009°22'1110.8
2015-Jul-21 01:33N 38°58' E 009°35'1110.5
2015-Jul-21 00:33N 38°54' E 009°47'1010.1
2015-Jul-20 23:33N 38°50' E 009°59'1010.2
2015-Jul-20 22:33N 38°46' E 010°11'1010.2
2015-Jul-20 21:33N 38°42' E 010°23'1010.1
2015-Jul-20 20:33N 38°38' E 010°35'10 9.9
2015-Jul-20 19:33N 38°34' E 010°47'1010.0
2015-Jul-20 18:33N 38°30' E 010°59'10 9.9
2015-Jul-20 17:33N 38°26' E 011°10'10 9.9
2015-Jul-20 16:33N 38°23' E 011°22'10 9.7
2015-Jul-20 15:33N 38°19' E 011°34'10 9.7
2015-Jul-20 14:33N 38°15' E 011°45'10 9.6
2015-Jul-20 13:33N 38°12' E 011°56'10 9.8
2015-Jul-20 12:33N 38°08' E 012°08'10 9.7
2015-Jul-20 11:33N 38°04' E 012°19'9 9.3
2015-Jul-20 10:33N 38°00' E 012°30'1 1.1
2015-Jul-20 09:31N 38°01' E 012°31'0 0.0
2015-Jul-20 08:31N 38°01' E 012°31'0 0.0
2015-Jul-20 07:31N 38°01' E 012°31'0 0.0
2015-Jul-20 06:33N 38°01' E 012°31'1 0.6
2015-Jul-20 05:33N 38°01' E 012°30'2 1.7
2015-Jul-20 04:33N 38°02' E 012°29'0 0.0
2015-Jul-20 03:33N 38°02' E 012°29'  
Track history (hours):
 
Tides and Currents Weather Stations Pressure Air Temp Water Temp Dewpoint Dewpoint Depression Visibility Wind Speed Wind Dir Waves Ship Positions

Heinz Schepers

Last reported at 2015-Jul-30 02:33 UTC. Time now 2015-Jul-30 18:11 UTC.
Position N 36°49' E 010°22'.

Length 101 m; draft 5.9 m.

Type: Cargo ship. MMSI: 304596000.

Date/timePositionNaut miles runAvg speedWind from/ knotsBaromVisibWave heightAir tempDewpointWater temp
2015-Jul-30 02:33N 36°49' E 010°22'0 0.0
2015-Jul-30 01:33N 36°49' E 010°22'0 0.0
2015-Jul-29 23:24N 36°49' E 010°22'0 0.1
2015-Jul-29 22:27N 36°49' E 010°22'0 0.0
2015-Jul-29 21:27N 36°49' E 010°22'0 0.0
2015-Jul-29 16:27N 36°49' E 010°22'0 0.0
2015-Jul-28 16:32N 36°49' E 010°22'0 0.0
2015-Jul-27 18:14N 36°49' E 010°22'0 0.0
2015-Jul-27 17:29N 36°49' E 010°22'0 0.0
2015-Jul-27 13:31N 36°49' E 010°22'0 0.0
2015-Jul-26 17:19N 36°49' E 010°22'0 0.0
2015-Jul-26 16:31N 36°49' E 010°22'0 0.0
2015-Jul-26 03:22N 36°49' E 010°22'0 0.0
2015-Jul-26 01:34N 36°49' E 010°22'  
2015-Jul-23 05:17N 36°49' E 010°22'33 1.6
2015-Jul-22 08:33N 37°22' E 010°24'1413.8
2015-Jul-22 07:33N 37°35' E 010°20'1414.4
2015-Jul-22 06:34N 37°47' E 010°10'1413.8
2015-Jul-22 05:33N 37°59' E 010°01'1413.7
2015-Jul-22 04:33N 38°11' E 009°52'1413.7
2015-Jul-22 03:34N 38°22' E 009°43'1413.6
2015-Jul-22 02:34N 38°34' E 009°33'1413.7
2015-Jul-22 01:33N 38°45' E 009°24'1414.2
2015-Jul-22 00:33N 38°57' E 009°13'1313.2
2015-Jul-21 23:33N 39°09' E 009°06'4 4.0
2015-Jul-21 22:31N 39°13' E 009°04'0 0.0
2015-Jul-21 21:31N 39°13' E 009°04'0 0.0
2015-Jul-21 20:31N 39°13' E 009°04'0 0.0
2015-Jul-21 19:31N 39°13' E 009°04'0 0.0
2015-Jul-21 18:31N 39°13' E 009°04'0 0.0
2015-Jul-21 17:31N 39°13' E 009°04'0 0.0
2015-Jul-21 16:31N 39°13' E 009°04'0 0.0
2015-Jul-21 15:31N 39°13' E 009°04'0 0.0
2015-Jul-21 14:31N 39°13' E 009°04'0 0.0
2015-Jul-21 13:31N 39°13' E 009°04'0 0.0
2015-Jul-21 12:31N 39°13' E 009°04'0 0.0
2015-Jul-21 11:34N 39°13' E 009°04'0 0.0
2015-Jul-21 10:33N 39°13' E 009°04'0 0.0
2015-Jul-21 09:33N 39°13' E 009°04'0 0.0
2015-Jul-21 08:33N 39°13' E 009°04'0 0.0
2015-Jul-21 07:33N 39°13' E 009°04'0 0.0
2015-Jul-21 06:33N 39°13' E 009°04'0 0.0
2015-Jul-21 05:33N 39°13' E 009°04'0 0.1
2015-Jul-21 04:33N 39°13' E 009°04'7 6.6
2015-Jul-21 03:33N 39°07' E 009°09'1111.4
2015-Jul-21 02:33N 39°02' E 009°22'1110.8
2015-Jul-21 01:33N 38°58' E 009°35'1110.5
2015-Jul-21 00:33N 38°54' E 009°47'1010.1
2015-Jul-20 23:33N 38°50' E 009°59'1010.2
2015-Jul-20 22:33N 38°46' E 010°11'1010.2
2015-Jul-20 21:33N 38°42' E 010°23'1010.1
2015-Jul-20 20:33N 38°38' E 010°35'10 9.9
2015-Jul-20 19:33N 38°34' E 010°47'1010.0
2015-Jul-20 18:33N 38°30' E 010°59'10 9.9
2015-Jul-20 17:33N 38°26' E 011°10'10 9.9
2015-Jul-20 16:33N 38°23' E 011°22'10 9.7
2015-Jul-20 15:33N 38°19' E 011°34'10 9.7
2015-Jul-20 14:33N 38°15' E 011°45'10 9.6
2015-Jul-20 13:33N 38°12' E 011°56'10 9.8
2015-Jul-20 12:33N 38°08' E 012°08'10 9.7
2015-Jul-20 11:33N 38°04' E 012°19'9 9.3
2015-Jul-20 10:33N 38°00' E 012°30'1 1.1
2015-Jul-20 09:31N 38°01' E 012°31'0 0.0
2015-Jul-20 08:31N 38°01' E 012°31'0 0.0
2015-Jul-20 07:31N 38°01' E 012°31'0 0.0
2015-Jul-20 06:33N 38°01' E 012°31'1 0.6
2015-Jul-20 05:33N 38°01' E 012°30'2 1.7
2015-Jul-20 04:33N 38°02' E 012°29'0 0.0
2015-Jul-20 03:33N 38°02' E 012°29'  

Dump ship's entire track history